Time;durP1;ratioP1;P1;durP2;ratioP2;P2;SDS_P1;SDS_P2;PMS_P1;PMS_P2;Temp;Humidity;BMP_temperature;BMP_pressure;BME280_temperature;BME280_humidity;BME280_pressure;Samples;Min_cycle;Max_cycle;Signal;HPM_P1;HPM_P2
2020/12/19 00:01:58;;;;;;;21.52;13.88;;;5.80;99.90;;;;;;12392616;28;20509;-82
2020/12/19 00:08:14;;;;;;;21.35;13.15;;;5.90;99.90;;;;;;12380855;28;20401;-83
2020/12/19 00:14:16;;;;;;;23.73;14.13;;;5.90;99.90;;;;;;12380796;28;20081;-83
2020/12/19 00:20:17;;;;;;;21.80;12.75;;;5.90;99.90;;;;;;12380218;28;20070;-83
2020/12/19 00:26:19;;;;;;;20.27;12.98;;;5.90;99.90;;;;;;12389184;28;20057;-83
2020/12/19 00:32:20;;;;;;;22.25;14.05;;;5.90;99.90;;;;;;12385648;28;20050;-83
2020/12/19 00:38:28;;;;;;;18.92;12.70;;;5.90;99.90;;;;;;12396322;28;20081;-83
2020/12/19 00:44:31;;;;;;;17.80;11.90;;;6.00;99.90;;;;;;12396333;28;20133;-83
2020/12/19 00:50:33;;;;;;;20.13;13.13;;;6.00;99.90;;;;;;12391085;28;20050;-83
2020/12/19 00:56:34;;;;;;;18.25;12.13;;;5.90;99.90;;;;;;12382798;28;20470;-83
2020/12/19 01:02:37;;;;;;;21.13;13.00;;;5.90;99.90;;;;;;12392693;28;20062;-83
2020/12/19 01:08:49;;;;;;;19.52;12.55;;;5.90;99.90;;;;;;12383893;28;20078;-83
2020/12/19 01:15:07;;;;;;;20.40;12.25;;;5.90;99.90;;;;;;12393853;28;20058;-83
2020/12/19 01:21:16;;;;;;;19.10;11.90;;;5.90;99.90;;;;;;12373473;28;20120;-84
2020/12/19 01:27:17;;;;;;;17.67;11.70;;;5.90;99.90;;;;;;12379812;28;20041;-83
2020/12/19 01:33:19;;;;;;;18.25;11.43;;;5.90;99.90;;;;;;12429704;28;20053;-82
2020/12/19 01:39:20;;;;;;;20.23;12.07;;;5.90;99.90;;;;;;12357132;28;20114;-82
2020/12/19 01:45:21;;;;;;;20.92;12.23;;;5.90;99.90;;;;;;12332979;28;20049;-83
2020/12/19 01:51:24;;;;;;;17.08;11.32;;;5.90;99.90;;;;;;12332126;28;20165;-83
2020/12/19 01:57:28;;;;;;;20.90;12.57;;;5.80;99.90;;;;;;12381208;28;20082;-83
2020/12/19 02:03:30;;;;;;;22.20;12.73;;;5.80;99.90;;;;;;12381725;28;20050;-83
2020/12/19 02:09:39;;;;;;;21.70;13.75;;;5.80;99.90;;;;;;12365084;28;20128;-83
2020/12/19 02:15:45;;;;;;;24.33;15.02;;;5.70;99.90;;;;;;12384491;28;20042;-83
2020/12/19 02:21:46;;;;;;;23.27;14.52;;;5.60;99.90;;;;;;12357349;28;20659;-83
2020/12/19 02:27:48;;;;;;;26.60;14.98;;;5.60;99.90;;;;;;12380141;28;20175;-83
2020/12/19 02:33:49;;;;;;;25.63;15.80;;;5.60;99.90;;;;;;12380067;28;20065;-83
2020/12/19 02:39:51;;;;;;;24.83;14.63;;;5.70;99.90;;;;;;12382682;28;20149;-83
2020/12/19 02:45:53;;;;;;;29.42;15.35;;;5.70;99.90;;;;;;12367719;28;20056;-83
2020/12/19 02:51:54;;;;;;;28.38;16.55;;;5.60;99.90;;;;;;12377400;28;20417;-83
2020/12/19 02:57:55;;;;;;;32.85;17.10;;;5.60;99.90;;;;;;12367708;28;20065;-83
2020/12/19 03:03:58;;;;;;;35.28;17.70;;;5.60;99.90;;;;;;12364641;28;20502;-83
2020/12/19 03:10:06;;;;;;;34.05;17.35;;;5.60;99.90;;;;;;12373508;28;20363;-83
2020/12/19 03:16:08;;;;;;;32.67;18.13;;;5.50;99.90;;;;;;12342723;28;20058;-83
2020/12/19 03:22:09;;;;;;;35.05;18.23;;;5.50;99.90;;;;;;12348543;28;20077;-84
2020/12/19 03:28:10;;;;;;;35.97;18.40;;;5.50;99.90;;;;;;12345300;28;20054;-83
2020/12/19 03:34:11;;;;;;;40.03;18.08;;;5.60;99.90;;;;;;12367577;28;20054;-83
2020/12/19 03:40:17;;;;;;;36.80;18.52;;;5.50;99.90;;;;;;12387684;28;20058;-83
2020/12/19 03:46:19;;;;;;;34.08;18.35;;;5.40;99.90;;;;;;12392383;28;20509;-83
2020/12/19 03:52:20;;;;;;;39.13;19.02;;;5.40;99.90;;;;;;12374246;28;20100;-84
2020/12/19 03:58:22;;;;;;;35.80;17.20;;;5.30;99.90;;;;;;12399863;28;20082;-84
2020/12/19 04:04:23;;;;;;;33.25;17.30;;;5.30;99.90;;;;;;12383102;28;20050;-83
2020/12/19 04:10:34;;;;;;;37.88;19.23;;;5.40;99.90;;;;;;12395721;28;20046;-83
2020/12/19 04:16:35;;;;;;;37.60;18.08;;;5.40;99.90;;;;;;12402199;28;20061;-84
2020/12/19 04:22:36;;;;;;;34.25;17.73;;;5.40;99.90;;;;;;12401619;28;20073;-84
2020/12/19 04:28:38;;;;;;;30.02;16.48;;;5.40;99.90;;;;;;12406384;28;20042;-83
2020/12/19 04:34:39;;;;;;;32.97;17.60;;;5.40;99.90;;;;;;12382616;28;20050;-83
2020/12/19 04:40:52;;;;;;;33.22;17.65;;;5.40;99.90;;;;;;12394589;28;20057;-83
2020/12/19 04:46:54;;;;;;;37.00;18.80;;;5.30;99.90;;;;;;12407550;28;20062;-82
2020/12/19 04:52:55;;;;;;;36.15;17.88;;;5.40;99.90;;;;;;12390567;28;20542;-83
2020/12/19 04:58:59;;;;;;;36.92;19.02;;;5.30;99.90;;;;;;12392785;28;20065;-83
2020/12/19 05:05:06;;;;;;;34.47;17.47;;;5.30;99.90;;;;;;12409648;28;20043;-83
2020/12/19 05:11:14;;;;;;;34.00;18.63;;;5.30;99.90;;;;;;12393011;28;20058;-84
2020/12/19 05:17:16;;;;;;;34.97;17.63;;;5.40;99.90;;;;;;12368604;28;20054;-84
2020/12/19 05:23:18;;;;;;;33.40;17.75;;;5.40;99.90;;;;;;12371645;28;20148;-83
2020/12/19 05:29:20;;;;;;;37.80;19.50;;;5.30;99.90;;;;;;12385714;28;20086;-83
2020/12/19 05:35:23;;;;;;;40.38;20.50;;;5.20;99.90;;;;;;12380668;28;20498;-84
2020/12/19 05:41:29;;;;;;;38.63;19.80;;;5.20;99.90;;;;;;12390009;28;20446;-84
2020/12/19 05:47:31;;;;;;;38.78;20.10;;;5.20;99.90;;;;;;12384896;28;20100;-84
2020/12/19 05:53:35;;;;;;;37.85;19.55;;;5.10;99.90;;;;;;12363622;28;20060;-83
2020/12/19 05:59:36;;;;;;;38.42;19.80;;;5.10;99.90;;;;;;12380378;28;20594;-84
2020/12/19 06:05:38;;;;;;;38.90;19.92;;;5.20;99.90;;;;;;12384174;28;20072;-84
2020/12/19 06:12:03;;;;;;;35.78;19.45;;;5.20;99.90;;;;;;12383298;28;20491;-83
2020/12/19 06:18:26;;;;;;;40.08;19.95;;;5.20;99.90;;;;;;12391437;28;20089;-83
2020/12/19 06:24:47;;;;;;;42.90;21.45;;;5.20;99.90;;;;;;12381033;28;20141;-83
2020/12/19 06:30:50;;;;;;;39.63;21.00;;;5.20;99.90;;;;;;12369131;28;20233;-84
2020/12/19 06:36:55;;;;;;;38.50;20.73;;;5.10;99.90;;;;;;12369975;28;20089;-84
2020/12/19 06:43:11;;;;;;;39.35;19.80;;;5.10;99.90;;;;;;12374400;28;20089;-83
2020/12/19 06:49:26;;;;;;;39.47;19.52;;;5.10;99.90;;;;;;12383476;28;20059;-83
2020/12/19 06:55:28;;;;;;;;;;;5.10;99.90;;;;;;12384915;28;20050;-83
2020/12/19 07:01:30;;;;;;;41.90;20.45;;;5.20;99.90;;;;;;12369774;28;19933;-83
2020/12/19 07:07:32;;;;;;;40.45;20.55;;;5.20;99.90;;;;;;12369016;28;20065;-83
2020/12/19 07:13:54;;;;;;;35.83;19.15;;;5.20;99.90;;;;;;12394289;28;20098;-83
2020/12/19 07:19:57;;;;;;;36.15;19.05;;;5.30;99.90;;;;;;12379754;28;20114;-84
2020/12/19 07:25:59;;;;;;;32.70;18.35;;;5.40;99.90;;;;;;12384858;28;20062;-84
2020/12/19 07:32:01;;;;;;;30.33;17.25;;;5.40;99.90;;;;;;12367282;28;20074;-84
2020/12/19 07:38:06;;;;;;;29.05;17.05;;;5.50;99.90;;;;;;12368073;28;21059;-84
2020/12/19 07:44:15;;;;;;;27.00;16.17;;;5.50;99.90;;;;;;12381834;28;20169;-84
2020/12/19 07:50:23;;;;;;;29.85;17.02;;;5.50;99.90;;;;;;12368441;28;20106;-84
2020/12/19 07:56:25;;;;;;;30.20;17.65;;;5.50;99.90;;;;;;12367058;28;20077;-84
2020/12/19 08:02:27;;;;;;;28.58;16.75;;;5.50;99.90;;;;;;12386489;28;20527;-84
2020/12/19 08:08:28;;;;;;;32.28;16.98;;;5.60;99.90;;;;;;12390175;28;20057;-85
2020/12/19 08:14:30;;;;;;;22.90;14.65;;;5.70;99.90;;;;;;12387901;28;20058;-83
2020/12/19 08:20:39;;;;;;;26.20;16.45;;;5.90;99.90;;;;;;12393229;28;20056;-84
2020/12/19 08:26:41;;;;;;;24.15;15.50;;;6.10;99.90;;;;;;12377577;28;20054;-84
2020/12/19 08:32:46;;;;;;;25.30;15.75;;;6.20;99.90;;;;;;12434560;28;20062;-85
2020/12/19 08:38:48;;;;;;;24.58;15.30;;;6.30;99.90;;;;;;12401478;28;20084;-84
2020/12/19 08:44:49;;;;;;;25.73;15.10;;;6.50;99.90;;;;;;12383450;28;20050;-83
2020/12/19 08:50:52;;;;;;;26.38;16.38;;;6.50;99.90;;;;;;12372764;28;20080;-83
2020/12/19 08:56:53;;;;;;;28.85;16.98;;;6.50;99.90;;;;;;12392554;28;20502;-83
2020/12/19 09:02:55;;;;;;;29.20;17.42;;;6.60;99.90;;;;;;12388960;28;20054;-83
2020/12/19 09:08:57;;;;;;;26.60;16.33;;;6.70;99.90;;;;;;12416549;28;20061;-83
2020/12/19 09:14:59;;;;;;;25.13;16.20;;;6.80;99.90;;;;;;12394170;28;20049;-82
2020/12/19 09:21:02;;;;;;;22.90;15.77;;;6.80;99.90;;;;;;12403142;28;20076;-82
2020/12/19 09:27:04;;;;;;;23.02;15.27;;;6.90;99.90;;;;;;12392964;28;20587;-83
2020/12/19 09:33:05;;;;;;;21.65;13.90;;;7.10;99.90;;;;;;12383300;28;20085;-82
2020/12/19 09:39:06;;;;;;;22.40;14.63;;;7.30;99.90;;;;;;12383400;28;20093;-83
2020/12/19 09:45:08;;;;;;;19.75;12.70;;;7.40;99.90;;;;;;12349106;28;20145;-83
2020/12/19 09:51:14;;;;;;;21.80;13.10;;;7.60;99.90;;;;;;12383872;28;20140;-83
2020/12/19 09:57:15;;;;;;;21.10;14.05;;;7.70;99.90;;;;;;12369920;28;20058;-83
2020/12/19 10:03:16;;;;;;;21.33;13.55;;;7.70;99.90;;;;;;12393974;28;20046;-84
2020/12/19 10:09:18;;;;;;;23.95;13.75;;;7.70;99.90;;;;;;12395568;28;20055;-83
2020/12/19 10:15:20;;;;;;;19.48;13.63;;;7.80;99.90;;;;;;12407878;28;20093;-83
2020/12/19 10:21:21;;;;;;;19.90;12.38;;;7.80;99.90;;;;;;12400006;28;20080;-83
2020/12/19 10:27:22;;;;;;;16.33;11.90;;;7.90;99.90;;;;;;12385405;28;20504;-83
2020/12/19 10:33:24;;;;;;;18.08;13.38;;;7.90;99.90;;;;;;12373895;28;20084;-83
2020/12/19 10:39:25;;;;;;;16.30;11.60;;;7.90;99.90;;;;;;12380018;28;20050;-83
2020/12/19 10:45:26;;;;;;;16.30;11.57;;;8.00;99.90;;;;;;12362377;28;20080;-83
2020/12/19 10:51:29;;;;;;;17.92;12.45;;;8.10;99.90;;;;;;12369063;28;20050;-84
2020/12/19 10:57:31;;;;;;;17.13;11.60;;;8.10;99.90;;;;;;12385554;28;20100;-84
2020/12/19 11:03:33;;;;;;;16.27;10.68;;;8.20;99.90;;;;;;12365153;28;20046;-83
2020/12/19 11:09:34;;;;;;;15.23;11.25;;;8.40;99.90;;;;;;12387458;28;20088;-84
2020/12/19 11:15:39;;;;;;;16.17;11.80;;;8.60;99.90;;;;;;12390811;28;20080;-84
2020/12/19 11:21:42;;;;;;;14.57;10.48;;;8.80;99.90;;;;;;12393665;28;20070;-83
2020/12/19 11:27:44;;;;;;;14.80;10.25;;;8.80;99.90;;;;;;12367126;28;20053;-83
2020/12/19 11:33:46;;;;;;;13.77;10.02;;;8.90;99.90;;;;;;12397464;28;20038;-83
2020/12/19 11:39:51;;;;;;;13.75;8.98;;;9.10;99.90;;;;;;12390000;28;20204;-84
2020/12/19 11:45:52;;;;;;;13.70;8.60;;;9.30;99.90;;;;;;12391332;28;20054;-84
2020/12/19 11:51:54;;;;;;;12.85;9.13;;;9.30;99.90;;;;;;12380541;28;20505;-84
2020/12/19 11:57:55;;;;;;;15.40;8.35;;;9.40;99.90;;;;;;12372655;28;20093;-83
2020/12/19 12:03:59;;;;;;;11.90;8.10;;;9.50;99.90;;;;;;12384615;28;20639;-83
2020/12/19 12:10:00;;;;;;;9.98;7.70;;;9.60;99.90;;;;;;12391434;28;20088;-83
2020/12/19 12:16:02;;;;;;;10.10;7.20;;;9.70;99.90;;;;;;12387008;28;20061;-83
2020/12/19 12:22:03;;;;;;;13.35;6.72;;;9.80;99.90;;;;;;12392566;28;20070;-84
2020/12/19 12:28:05;;;;;;;10.80;7.30;;;9.90;99.90;;;;;;12381560;28;20109;-84
2020/12/19 12:34:06;;;;;;;7.40;5.38;;;9.90;99.90;;;;;;12395559;28;21101;-83
2020/12/19 12:40:07;;;;;;;8.02;5.53;;;10.30;99.90;;;;;;12378042;28;20055;-84
2020/12/19 12:46:10;;;;;;;7.22;5.07;;;10.40;99.90;;;;;;12377099;28;20085;-84
2020/12/19 12:52:11;;;;;;;8.73;5.60;;;10.40;99.90;;;;;;12394444;28;20050;-84
2020/12/19 12:58:13;;;;;;;7.32;5.15;;;10.40;99.90;;;;;;12378129;28;20050;-84
2020/12/19 13:04:14;;;;;;;6.95;5.03;;;10.50;99.90;;;;;;12384180;28;20046;-84
2020/12/19 13:10:15;;;;;;;8.02;4.88;;;10.40;99.90;;;;;;12381732;28;20054;-84
2020/12/19 13:16:17;;;;;;;8.18;5.07;;;10.40;99.90;;;;;;12410089;28;20049;-82
2020/12/19 13:22:18;;;;;;;8.30;4.72;;;10.40;99.90;;;;;;12400438;28;20053;-82
2020/12/19 13:28:20;;;;;;;8.13;5.20;;;10.30;99.90;;;;;;12377007;28;20552;-82
2020/12/19 13:34:21;;;;;;;7.03;5.00;;;10.20;99.90;;;;;;12378834;28;20050;-82
2020/12/19 13:40:22;;;;;;;9.07;5.40;;;10.10;99.90;;;;;;12391503;28;20053;-82
2020/12/19 13:46:24;;;;;;;8.13;5.60;;;10.20;99.90;;;;;;12369651;28;20422;-82
2020/12/19 13:52:25;;;;;;;8.73;5.43;;;9.90;99.90;;;;;;12408741;28;20432;-82
2020/12/19 13:58:27;;;;;;;9.10;5.70;;;9.70;99.90;;;;;;12367733;28;20137;-82
2020/12/19 14:04:28;;;;;;;8.70;5.72;;;9.70;99.90;;;;;;12380009;28;20070;-82
2020/12/19 14:10:29;;;;;;;11.30;5.75;;;9.50;99.90;;;;;;12370475;28;20046;-82
2020/12/19 14:16:37;;;;;;;9.73;5.97;;;9.40;99.90;;;;;;12383589;28;20103;-82
2020/12/19 14:22:38;;;;;;;9.05;6.18;;;9.30;99.90;;;;;;12392121;28;20498;-83
2020/12/19 14:28:39;;;;;;;8.10;6.03;;;9.20;99.90;;;;;;12381562;28;20133;-82
2020/12/19 14:34:43;;;;;;;8.60;5.95;;;9.20;99.90;;;;;;12398032;28;20137;-82
2020/12/19 14:40:44;;;;;;;9.68;6.03;;;9.10;99.90;;;;;;12369812;28;20096;-81
2020/12/19 14:46:59;;;;;;;9.82;5.85;;;9.10;99.90;;;;;;12395447;28;20129;-82
2020/12/19 14:53:01;;;;;;;9.52;5.90;;;8.90;99.90;;;;;;12387620;28;20061;-82
2020/12/19 14:59:03;;;;;;;9.05;5.40;;;8.90;99.90;;;;;;12395143;28;20062;-83
2020/12/19 15:05:04;;;;;;;9.90;5.85;;;8.80;99.90;;;;;;12391970;28;20185;-82
2020/12/19 15:11:05;;;;;;;10.43;5.72;;;8.70;99.90;;;;;;12390231;28;20459;-83
2020/12/19 15:17:15;;;;;;;7.30;5.63;;;8.70;99.90;;;;;;12401595;28;20124;-83
2020/12/19 15:23:16;;;;;;;9.07;5.85;;;8.60;99.90;;;;;;12390189;28;20054;-82
2020/12/19 15:29:18;;;;;;;9.38;5.97;;;8.40;99.90;;;;;;12391828;28;20054;-82
2020/12/19 15:35:20;;;;;;;10.55;6.25;;;8.40;99.90;;;;;;12396461;28;20060;-82
2020/12/19 15:41:21;;;;;;;8.82;6.20;;;8.20;99.90;;;;;;12376696;28;20060;-82
2020/12/19 15:47:28;;;;;;;8.82;5.90;;;8.20;99.90;;;;;;12379276;28;20085;-82
2020/12/19 15:53:31;;;;;;;10.02;5.95;;;8.20;99.90;;;;;;12392859;28;20459;-81
2020/12/19 15:59:33;;;;;;;8.20;5.93;;;8.30;99.90;;;;;;12371309;28;20386;-82
2020/12/19 16:05:34;;;;;;;9.18;5.72;;;8.40;99.90;;;;;;12383383;28;20045;-82
2020/12/19 16:11:36;;;;;;;8.82;5.82;;;8.30;99.90;;;;;;12374276;28;20046;-81
2020/12/19 16:17:48;;;;;;;9.65;6.18;;;8.20;99.90;;;;;;12389080;28;20062;-81
2020/12/19 16:23:49;;;;;;;10.18;6.30;;;8.10;99.90;;;;;;12378169;28;20057;-81
2020/12/19 16:29:51;;;;;;;9.48;6.05;;;8.00;99.90;;;;;;12353922;28;20069;-81
2020/12/19 16:35:52;;;;;;;8.57;6.10;;;8.00;99.90;;;;;;12380360;28;20437;-81
2020/12/19 16:41:54;;;;;;;9.55;6.05;;;8.10;99.90;;;;;;12378536;28;20066;-81
2020/12/19 16:48:04;;;;;;;11.95;5.43;;;8.20;99.90;;;;;;12386573;28;20506;-80
2020/12/19 16:54:15;;;;;;;9.40;5.53;;;8.30;99.90;;;;;;12367501;28;20079;-81
2020/12/19 17:00:17;;;;;;;8.60;5.45;;;8.40;99.90;;;;;;12370638;28;20050;-82
2020/12/19 17:06:25;;;;;;;7.47;4.80;;;8.40;99.90;;;;;;12390095;28;20490;-81
2020/12/19 17:12:31;;;;;;;8.10;5.55;;;8.60;99.90;;;;;;12365430;28;20129;-81
2020/12/19 17:18:32;;;;;;;7.38;5.20;;;8.80;99.90;;;;;;12377170;28;20061;-81
2020/12/19 17:24:34;;;;;;;7.90;4.88;;;8.90;99.90;;;;;;12389516;28;20050;-81
2020/12/19 17:30:35;;;;;;;7.68;5.10;;;8.80;99.90;;;;;;12371569;28;20050;-82
2020/12/19 17:36:37;;;;;;;9.27;5.65;;;8.80;99.90;;;;;;12397097;28;20410;-81
2020/12/19 17:42:39;;;;;;;8.90;5.55;;;8.80;99.90;;;;;;12392952;28;20045;-82
2020/12/19 17:48:41;;;;;;;7.18;4.75;;;8.80;99.90;;;;;;12390527;28;20494;-80
2020/12/19 17:54:42;;;;;;;8.95;5.57;;;8.70;99.90;;;;;;12365384;28;20062;-81
2020/12/19 18:00:47;;;;;;;8.70;6.00;;;8.70;99.90;;;;;;12384210;28;20085;-80
2020/12/19 18:06:48;;;;;;;10.02;5.95;;;8.50;99.90;;;;;;12381545;28;20050;-80
2020/12/19 18:12:50;;;;;;;10.98;5.60;;;8.60;99.90;;;;;;12387428;28;20088;-81
2020/12/19 18:18:59;;;;;;;8.38;5.28;;;8.60;99.90;;;;;;12368047;28;20062;-80
2020/12/19 18:25:00;;;;;;;8.52;5.22;;;8.60;99.90;;;;;;12369034;28;20244;-81
2020/12/19 18:31:02;;;;;;;14.73;7.40;;;8.50;99.90;;;;;;12383148;28;20042;-82
2020/12/19 18:37:03;;;;;;;9.20;5.75;;;8.50;99.90;;;;;;12385534;28;20066;-81
2020/12/19 18:43:05;;;;;;;8.48;5.70;;;8.60;99.90;;;;;;12381958;28;20064;-81
2020/12/19 18:49:16;;;;;;;9.55;5.80;;;8.50;99.90;;;;;;12394252;28;20054;-81
2020/12/19 18:55:17;;;;;;;6.95;4.93;;;8.50;99.90;;;;;;12365190;28;20414;-81
2020/12/19 19:01:19;;;;;;;10.27;5.28;;;8.50;99.90;;;;;;12391659;28;20054;-81
2020/12/19 19:07:20;;;;;;;8.23;5.13;;;8.60;99.90;;;;;;12389536;28;20081;-81
2020/12/19 19:13:21;;;;;;;8.75;5.32;;;8.50;99.90;;;;;;12391880;28;20434;-81
2020/12/19 19:19:35;;;;;;;10.15;5.45;;;8.50;99.90;;;;;;12397243;28;20050;-80
2020/12/19 19:25:38;;;;;;;9.20;5.47;;;8.50;99.90;;;;;;12410588;28;20109;-80
2020/12/19 19:31:44;;;;;;;9.07;5.68;;;8.50;99.90;;;;;;12377029;28;20041;-80
2020/12/19 19:37:45;;;;;;;8.73;5.55;;;8.60;99.90;;;;;;12384174;28;20058;-80
2020/12/19 19:43:46;;;;;;;11.02;5.40;;;8.80;99.90;;;;;;12378801;28;20069;-80
2020/12/19 19:49:51;;;;;;;9.75;4.75;;;8.90;99.90;;;;;;12374287;28;20792;-80
2020/12/19 19:55:54;;;;;;;8.95;4.78;;;8.90;99.90;;;;;;12384966;28;20147;-80
2020/12/19 20:01:55;;;;;;;7.90;5.20;;;9.00;99.90;;;;;;12378332;28;20518;-81
2020/12/19 20:07:56;;;;;;;9.93;5.20;;;9.00;99.90;;;;;;12382024;28;20065;-81
2020/12/19 20:13:58;;;;;;;11.30;5.35;;;9.00;99.90;;;;;;12377589;28;20042;-80
2020/12/19 20:20:07;;;;;;;9.05;5.03;;;9.00;99.90;;;;;;12386186;28;20491;-80
2020/12/19 20:26:08;;;;;;;8.88;4.35;;;9.10;99.90;;;;;;12390211;28;20635;-80
2020/12/19 20:32:10;;;;;;;8.65;4.28;;;9.30;99.90;;;;;;12384363;28;20074;-80
2020/12/19 20:38:11;;;;;;;8.85;4.18;;;9.50;99.90;;;;;;12379357;28;20054;-80
2020/12/19 20:44:13;;;;;;;7.80;3.95;;;9.60;99.90;;;;;;12388986;28;20070;-81
2020/12/19 20:50:26;;;;;;;7.33;3.80;;;9.70;99.90;;;;;;12363485;28;20397;-80
2020/12/19 20:56:28;;;;;;;6.57;4.03;;;9.80;99.90;;;;;;12392835;28;20108;-80
2020/12/19 21:02:29;;;;;;;9.55;3.95;;;9.80;99.90;;;;;;12383600;28;20092;-80
2020/12/19 21:08:31;;;;;;;6.60;3.78;;;9.80;99.90;;;;;;12403132;28;20050;-80
2020/12/19 21:14:32;;;;;;;5.82;3.70;;;9.80;99.90;;;;;;12391246;28;20061;-81
2020/12/19 21:20:45;;;;;;;7.28;4.00;;;9.70;99.90;;;;;;12392934;28;20081;-81
2020/12/19 21:26:46;;;;;;;7.93;4.30;;;9.80;99.90;;;;;;12369931;28;20063;-81
2020/12/19 21:32:47;;;;;;;6.68;4.10;;;9.60;99.90;;;;;;12398922;28;20427;-81
2020/12/19 21:38:49;;;;;;;7.03;4.40;;;9.40;99.90;;;;;;12400540;28;20054;-81
2020/12/19 21:44:51;;;;;;;7.18;4.70;;;9.30;99.90;;;;;;12377483;28;20065;-80
2020/12/19 21:51:02;;;;;;;7.80;4.30;;;9.30;99.90;;;;;;12385373;28;20134;-80
2020/12/19 21:57:04;;;;;;;7.35;4.60;;;9.20;99.90;;;;;;12393777;28;20087;-80
2020/12/19 22:03:05;;;;;;;7.38;4.10;;;9.20;99.90;;;;;;12375113;28;20050;-80
2020/12/19 22:09:06;;;;;;;7.10;4.75;;;9.20;99.90;;;;;;12376015;28;20055;-80
2020/12/19 22:15:09;;;;;;;7.63;5.00;;;9.20;99.90;;;;;;12389719;28;20056;-81
2020/12/19 22:21:20;;;;;;;8.68;4.70;;;9.20;99.90;;;;;;12387472;28;20050;-80
2020/12/19 22:27:27;;;;;;;10.70;5.20;;;9.20;99.90;;;;;;12405482;28;20049;-81
2020/12/19 22:33:28;;;;;;;6.95;4.50;;;9.10;99.90;;;;;;12418040;28;20065;-80
2020/12/19 22:39:30;;;;;;;6.63;4.70;;;9.10;99.90;;;;;;12399640;28;21255;-79
2020/12/19 22:45:31;;;;;;;8.43;4.60;;;9.10;99.90;;;;;;12379949;28;20093;-79
2020/12/19 22:51:44;;;;;;;7.65;4.45;;;9.10;99.90;;;;;;12389718;28;20125;-80
2020/12/19 22:57:45;;;;;;;7.97;5.22;;;9.00;99.90;;;;;;12381134;28;20058;-80
2020/12/19 23:03:47;;;;;;;9.50;5.38;;;9.10;99.90;;;;;;12359086;28;20057;-80
2020/12/19 23:09:48;;;;;;;9.88;4.68;;;9.10;99.90;;;;;;12344285;28;20046;-80
2020/12/19 23:15:50;;;;;;;7.53;4.75;;;9.10;99.90;;;;;;12383428;28;20142;-80
2020/12/19 23:22:00;;;;;;;8.45;5.63;;;9.10;99.90;;;;;;12393189;28;20204;-80
2020/12/19 23:28:01;;;;;;;8.23;5.30;;;9.00;99.90;;;;;;12375960;28;20058;-81
2020/12/19 23:34:03;;;;;;;8.10;4.97;;;9.20;99.90;;;;;;12393620;28;20070;-81
2020/12/19 23:40:06;;;;;;;7.72;4.82;;;9.00;99.90;;;;;;12381379;28;20079;-80
2020/12/19 23:46:07;;;;;;;8.32;4.63;;;9.10;99.90;;;;;;12371942;28;20447;-80
2020/12/19 23:52:17;;;;;;;7.78;4.70;;;9.10;99.90;;;;;;12379695;28;20605;-80
2020/12/19 23:58:18;;;;;;;10.05;5.38;;;9.10;99.90;;;;;;12384598;28;20503;-80
